Time;durP1;ratioP1;P1;durP2;ratioP2;P2;SDS_P1;SDS_P2;PMS_P1;PMS_P2;Temp;Humidity;BMP_temperature;BMP_pressure;BME280_temperature;BME280_humidity;BME280_pressure;Samples;Min_cycle;Max_cycle;Signal;HPM_P1;HPM_P2
2022/11/18 00:01:16;;;;;;;54.77;31.80;;;9.60;99.90;;;;;;5096032;28;20238;-74
2022/11/18 00:03:43;;;;;;;55.78;31.48;;;9.60;99.90;;;;;;5114249;28;20179;-74
2022/11/18 00:06:28;;;;;;;56.17;31.50;;;9.50;99.90;;;;;;5114222;28;20192;-74
2022/11/18 00:08:54;;;;;;;61.55;33.85;;;9.50;99.90;;;;;;5114885;28;20172;-74
2022/11/18 00:14:19;;;;;;;66.32;33.45;;;9.40;99.90;;;;;;5114666;28;20240;-74
2022/11/18 00:16:47;;;;;;;72.78;33.15;;;9.30;99.90;;;;;;5095894;28;20633;-74
2022/11/18 00:19:12;;;;;;;64.90;32.55;;;9.30;99.90;;;;;;5113894;28;20677;-74
2022/11/18 00:21:38;;;;;;;69.63;34.43;;;9.30;99.90;;;;;;5114335;28;20172;-74
2022/11/18 00:24:04;;;;;;;67.07;32.10;;;9.30;99.90;;;;;;5113823;28;20172;-74
2022/11/18 00:26:30;;;;;;;68.97;32.87;;;9.30;99.90;;;;;;5095749;28;20635;-74
2022/11/18 00:28:55;;;;;;;71.20;32.73;;;9.30;99.90;;;;;;5114517;28;20420;-74
2022/11/18 00:31:21;;;;;;;67.03;32.00;;;9.30;99.90;;;;;;5095452;28;20227;-74
2022/11/18 00:33:46;;;;;;;79.83;36.07;;;9.30;99.90;;;;;;5095831;28;20191;-74
2022/11/18 00:36:12;;;;;;;66.03;34.07;;;9.30;99.90;;;;;;5113917;28;20192;-74
2022/11/18 00:38:38;;;;;;;71.10;33.30;;;9.30;99.90;;;;;;5114275;28;20202;-73
2022/11/18 00:41:10;;;;;;;80.18;33.88;;;9.40;99.90;;;;;;5095584;28;20545;-74
2022/11/18 00:43:36;;;;;;;81.03;38.47;;;9.40;99.90;;;;;;5115683;28;20184;-74
2022/11/18 00:46:06;;;;;;;77.28;32.45;;;9.40;99.90;;;;;;5118017;28;20320;-74
2022/11/18 00:48:31;;;;;;;69.00;30.98;;;9.40;99.90;;;;;;5099797;28;20191;-74
2022/11/18 00:51:06;;;;;;;64.13;31.67;;;9.40;99.90;;;;;;5099523;28;20664;-74
2022/11/18 00:53:31;;;;;;;81.50;33.35;;;9.40;99.90;;;;;;5099435;28;20679;-74
2022/11/18 00:55:57;;;;;;;82.73;34.87;;;9.40;99.90;;;;;;5117731;28;20188;-74
2022/11/18 00:58:22;;;;;;;73.07;31.00;;;9.40;99.90;;;;;;5117965;28;20262;-74
2022/11/18 01:00:51;;;;;;;68.27;33.90;;;9.40;99.90;;;;;;5099435;28;20545;-74
2022/11/18 01:03:17;;;;;;;62.72;30.08;;;9.40;99.90;;;;;;5118038;28;20257;-74
2022/11/18 01:05:43;;;;;;;65.30;31.25;;;9.40;99.90;;;;;;5099337;28;20224;-74
2022/11/18 01:08:10;;;;;;;64.20;30.43;;;9.40;99.90;;;;;;5117925;28;20207;-74
2022/11/18 01:10:37;;;;;;;79.30;35.05;;;9.40;99.90;;;;;;5117436;28;20192;-74
2022/11/18 01:13:19;;;;;;;66.53;29.60;;;9.40;99.90;;;;;;5117550;28;20184;-74
2022/11/18 01:15:53;;;;;;;74.60;31.42;;;9.40;99.90;;;;;;5117355;28;20230;-74
2022/11/18 01:18:23;;;;;;;69.95;31.63;;;9.50;99.90;;;;;;5117778;28;20567;-74
2022/11/18 01:20:48;;;;;;;80.85;33.47;;;9.50;99.90;;;;;;5117279;28;20192;-74
2022/11/18 01:23:15;;;;;;;66.37;30.10;;;9.50;99.90;;;;;;5117659;28;20631;-74
2022/11/18 01:25:43;;;;;;;77.55;30.13;;;9.50;99.90;;;;;;5095338;28;20748;-74
2022/11/18 01:28:09;;;;;;;93.97;35.33;;;9.50;99.90;;;;;;5097054;28;20682;-74
2022/11/18 01:30:36;;;;;;;74.07;30.70;;;9.60;99.90;;;;;;5096662;28;20196;-74
2022/11/18 01:33:03;;;;;;;82.28;32.15;;;9.60;99.90;;;;;;5096988;28;20177;-74
2022/11/18 01:35:40;;;;;;;87.75;31.90;;;9.60;99.90;;;;;;5095160;28;20196;-74
2022/11/18 01:38:06;;;;;;;98.97;32.15;;;9.70;99.90;;;;;;5096939;28;20392;-74
2022/11/18 01:40:33;;;;;;;104.97;30.55;;;9.70;99.90;;;;;;5096505;28;20688;-74
2022/11/18 01:42:59;;;;;;;69.43;30.88;;;9.70;99.90;;;;;;5095329;28;20180;-74
2022/11/18 01:45:28;;;;;;;64.55;30.52;;;9.70;99.90;;;;;;5096337;28;20270;-74
2022/11/18 01:48:04;;;;;;;83.32;32.15;;;9.70;99.90;;;;;;5096671;28;20183;-74
2022/11/18 01:50:34;;;;;;;75.60;32.28;;;9.70;99.90;;;;;;5095113;28;20203;-74
2022/11/18 01:53:05;;;;;;;74.60;31.25;;;9.70;99.90;;;;;;5094987;28;20239;-74
2022/11/18 01:55:34;;;;;;;69.38;31.08;;;9.70;99.90;;;;;;5094426;28;20279;-74
2022/11/18 01:58:09;;;;;;;69.35;30.83;;;9.80;99.90;;;;;;5096496;28;20215;-74
2022/11/18 02:00:36;;;;;;;80.80;33.05;;;9.80;99.90;;;;;;5094806;28;20231;-74
2022/11/18 02:03:03;;;;;;;75.07;34.72;;;9.80;99.90;;;;;;5096359;28;20192;-74
2022/11/18 02:05:29;;;;;;;76.68;32.55;;;9.80;99.90;;;;;;5094709;28;20193;-74
2022/11/18 02:07:56;;;;;;;80.75;31.67;;;9.90;99.90;;;;;;5094883;28;20184;-74
2022/11/18 02:10:23;;;;;;;70.60;33.47;;;9.90;99.90;;;;;;5094601;28;20196;-74
2022/11/18 02:12:51;;;;;;;62.60;30.75;;;9.90;99.90;;;;;;5095797;28;20255;-74
2022/11/18 02:15:25;;;;;;;70.93;33.10;;;9.90;99.90;;;;;;5095755;28;20215;-74
2022/11/18 02:18:08;;;;;;;72.75;32.97;;;9.90;99.90;;;;;;5096226;28;20171;-74
2022/11/18 02:20:46;;;;;;;62.33;29.67;;;10.00;99.90;;;;;;5094506;28;20311;-74
2022/11/18 02:23:41;;;;;;;74.47;32.83;;;10.00;99.90;;;;;;5094605;28;20180;-74
2022/11/18 02:26:31;;;;;;;70.97;31.33;;;9.90;99.90;;;;;;5084943;28;20231;-74
2022/11/18 02:29:19;;;;;;;69.28;32.13;;;9.90;99.90;;;;;;5096291;28;20267;-74
2022/11/18 02:32:01;;;;;;;63.80;30.08;;;10.00;99.90;;;;;;5094310;28;20173;-74
2022/11/18 02:34:45;;;;;;;88.70;31.98;;;10.00;99.90;;;;;;5094055;28;20204;-74
2022/11/18 02:37:42;;;;;;;62.53;31.60;;;10.00;99.90;;;;;;5094248;28;20199;-74
2022/11/18 02:40:29;;;;;;;82.93;30.83;;;10.00;99.90;;;;;;5093268;28;20228;-74
2022/11/18 02:43:03;;;;;;;66.68;32.65;;;10.00;99.90;;;;;;5094166;28;20270;-74
2022/11/18 02:45:30;;;;;;;79.07;30.80;;;10.00;99.90;;;;;;5094159;28;20266;-74
2022/11/18 02:47:58;;;;;;;72.05;33.70;;;10.10;99.90;;;;;;5095502;28;20184;-74
2022/11/18 02:50:27;;;;;;;72.10;31.60;;;10.10;99.90;;;;;;5095177;28;20675;-74
2022/11/18 02:52:58;;;;;;;63.97;33.72;;;10.10;99.90;;;;;;5095194;28;20187;-74
2022/11/18 02:55:27;;;;;;;62.15;28.95;;;10.10;99.90;;;;;;5093825;28;20239;-74
2022/11/18 02:57:54;;;;;;;57.40;27.20;;;10.10;99.90;;;;;;5093982;28;20216;-74
2022/11/18 03:00:19;;;;;;;74.10;30.10;;;10.10;99.90;;;;;;5094872;28;20226;-74
2022/11/18 03:02:48;;;;;;;68.07;30.57;;;10.10;99.90;;;;;;5093827;28;20637;-74
2022/11/18 03:05:39;;;;;;;63.75;29.00;;;10.10;99.90;;;;;;5093421;28;20189;-74
2022/11/18 03:08:13;;;;;;;77.82;29.52;;;10.10;99.90;;;;;;5095114;28;20219;-74
2022/11/18 03:10:50;;;;;;;58.90;29.42;;;10.10;99.90;;;;;;5094796;28;20192;-74
2022/11/18 03:13:41;;;;;;;56.83;27.42;;;10.10;99.90;;;;;;5095039;28;20660;-73
2022/11/18 03:16:16;;;;;;;58.97;29.60;;;10.10;99.90;;;;;;5093317;28;20246;-74
2022/11/18 03:19:04;;;;;;;68.60;29.40;;;10.10;99.90;;;;;;5095162;28;20176;-74
2022/11/18 03:21:32;;;;;;;67.38;28.00;;;10.10;99.90;;;;;;5093410;28;20173;-74
2022/11/18 03:24:32;;;;;;;67.72;29.38;;;10.10;99.90;;;;;;5095038;28;20559;-74
2022/11/18 03:27:13;;;;;;;69.20;28.92;;;10.10;99.90;;;;;;5114248;28;20238;-75
2022/11/18 03:29:47;;;;;;;83.65;29.65;;;10.10;99.90;;;;;;5096675;28;20210;-74
2022/11/18 03:32:18;;;;;;;55.67;27.10;;;10.10;99.90;;;;;;5114842;28;20241;-74
2022/11/18 03:34:48;;;;;;;64.18;29.50;;;10.10;99.90;;;;;;5114576;28;20699;-74
2022/11/18 03:37:17;;;;;;;59.70;27.27;;;10.10;99.90;;;;;;5114800;28;20648;-74
2022/11/18 03:39:48;;;;;;;54.63;29.80;;;10.10;99.90;;;;;;5096308;28;20220;-74
2022/11/18 03:42:17;;;;;;;65.68;29.75;;;10.00;99.90;;;;;;5114802;28;20172;-74
2022/11/18 03:44:50;;;;;;;59.95;27.55;;;10.00;99.90;;;;;;5114873;28;20198;-74
2022/11/18 03:47:25;;;;;;;66.60;29.40;;;10.00;99.90;;;;;;5114713;28;20200;-74
2022/11/18 03:49:55;;;;;;;60.22;28.83;;;10.00;99.90;;;;;;5096289;28;20195;-74
2022/11/18 03:52:26;;;;;;;82.13;29.63;;;9.90;99.90;;;;;;5096229;28;20530;-74
2022/11/18 03:54:55;;;;;;;51.03;27.70;;;9.90;99.90;;;;;;5096055;28;20674;-74
2022/11/18 03:57:45;;;;;;;57.00;29.08;;;9.90;99.90;;;;;;5096092;28;20206;-74
2022/11/18 04:00:14;;;;;;;55.60;27.08;;;9.90;99.90;;;;;;5114213;28;20223;-73
2022/11/18 04:02:39;;;;;;;68.10;29.38;;;9.80;99.90;;;;;;5114535;28;20215;-74
2022/11/18 04:05:11;;;;;;;71.87;29.30;;;9.70;99.90;;;;;;5114308;28;20240;-74
2022/11/18 04:08:01;;;;;;;77.28;28.60;;;9.70;99.90;;;;;;5114579;28;20172;-74
2022/11/18 04:10:47;;;;;;;53.67;26.67;;;9.70;99.90;;;;;;5114329;28;20267;-74
2022/11/18 04:13:27;;;;;;;55.75;27.23;;;9.70;99.90;;;;;;5114385;28;20187;-74
2022/11/18 04:15:53;;;;;;;54.03;23.55;;;9.60;99.90;;;;;;5114068;28;20627;-73
2022/11/18 04:18:19;;;;;;;52.55;26.60;;;9.60;99.90;;;;;;5095681;28;20172;-74
2022/11/18 04:20:44;;;;;;;56.00;27.57;;;9.50;99.90;;;;;;5114051;28;20552;-73
2022/11/18 04:23:10;;;;;;;55.53;25.87;;;9.40;99.90;;;;;;5114376;28;20183;-74
2022/11/18 04:25:36;;;;;;;52.03;26.50;;;9.40;99.90;;;;;;5095713;28;20243;-74
2022/11/18 04:28:02;;;;;;;41.47;23.53;;;9.40;99.90;;;;;;5114310;28;20208;-75
2022/11/18 04:30:28;;;;;;;42.38;22.50;;;9.40;99.90;;;;;;5113942;28;20196;-74
2022/11/18 04:32:54;;;;;;;45.07;24.67;;;9.30;99.90;;;;;;5095729;28;20274;-74
2022/11/18 04:35:20;;;;;;;47.67;24.00;;;9.30;99.90;;;;;;5113691;28;20419;-74
2022/11/18 04:37:45;;;;;;;43.73;23.03;;;9.30;99.90;;;;;;5114271;28;20176;-74
2022/11/18 04:40:11;;;;;;;46.40;23.83;;;9.20;99.90;;;;;;5095579;28;20467;-74
2022/11/18 04:42:37;;;;;;;47.33;24.15;;;9.30;99.90;;;;;;5114104;28;20183;-74
2022/11/18 04:45:04;;;;;;;50.70;24.77;;;9.30;99.90;;;;;;5113854;28;20188;-74
2022/11/18 04:47:30;;;;;;;47.40;24.92;;;9.30;99.90;;;;;;5113994;28;20970;-74
2022/11/18 04:49:56;;;;;;;50.13;24.30;;;9.30;99.90;;;;;;5096035;28;20195;-74
2022/11/18 04:52:21;;;;;;;47.70;24.77;;;9.30;99.90;;;;;;5095502;28;20271;-74
2022/11/18 04:54:47;;;;;;;66.73;28.20;;;9.30;99.90;;;;;;5113387;28;20459;-74
2022/11/18 04:57:13;;;;;;;57.67;28.67;;;9.30;99.90;;;;;;5113848;28;20445;-74
2022/11/18 04:59:39;;;;;;;56.73;25.27;;;9.30;99.90;;;;;;5113521;28;20917;-74
2022/11/18 05:02:05;;;;;;;53.40;25.13;;;9.30;99.90;;;;;;5095589;28;20702;-74
2022/11/18 05:04:32;;;;;;;56.07;26.70;;;9.30;99.90;;;;;;5113678;28;20188;-74
2022/11/18 05:06:59;;;;;;;49.92;26.08;;;9.20;99.90;;;;;;5113750;28;20180;-74
2022/11/18 05:09:25;;;;;;;52.58;27.95;;;9.30;99.90;;;;;;5113607;28;20556;-74
2022/11/18 05:14:36;;;;;;;62.28;26.65;;;9.30;99.90;;;;;;5113676;28;20601;-74
2022/11/18 05:17:03;;;;;;;63.83;26.70;;;9.30;99.90;;;;;;5113349;28;20535;-74
2022/11/18 05:19:29;;;;;;;52.90;26.13;;;9.30;99.90;;;;;;5095174;28;20216;-74
2022/11/18 05:21:55;;;;;;;56.13;27.33;;;9.40;99.90;;;;;;5095282;28;20649;-74
2022/11/18 05:24:23;;;;;;;47.93;26.80;;;9.40;99.90;;;;;;5095151;28;20489;-74
2022/11/18 05:26:52;;;;;;;52.53;25.45;;;9.50;99.90;;;;;;5113299;28;20219;-74
2022/11/18 05:29:19;;;;;;;51.55;25.83;;;9.50;99.90;;;;;;5114259;28;20203;-74
2022/11/18 05:31:45;;;;;;;58.97;24.77;;;9.50;99.90;;;;;;5098888;28;20258;-74
2022/11/18 05:34:11;;;;;;;40.88;23.45;;;9.50;99.90;;;;;;5098659;28;20187;-74
2022/11/18 05:36:37;;;;;;;55.13;25.75;;;9.50;99.90;;;;;;5116956;28;20651;-74
2022/11/18 05:39:03;;;;;;;46.87;24.07;;;9.50;99.90;;;;;;5117292;28;20203;-74
2022/11/18 05:44:13;;;;;;;37.42;22.08;;;9.50;99.90;;;;;;5116322;28;20635;-74
2022/11/18 05:46:39;;;;;;;49.53;26.17;;;9.50;99.90;;;;;;5117006;28;20179;-74
2022/11/18 05:49:06;;;;;;;55.27;26.17;;;9.50;99.90;;;;;;5117142;28;20171;-74
2022/11/18 05:51:32;;;;;;;46.97;26.08;;;9.50;99.90;;;;;;5116266;28;20790;-74
2022/11/18 05:53:59;;;;;;;53.78;26.10;;;9.50;99.90;;;;;;5116117;28;20547;-74
2022/11/18 05:56:28;;;;;;;48.10;25.30;;;9.50;99.90;;;;;;5116245;28;20204;-74
2022/11/18 05:58:54;;;;;;;47.58;26.00;;;9.50;99.90;;;;;;5106626;28;20206;-74
2022/11/18 06:01:24;;;;;;;42.03;23.67;;;9.50;99.90;;;;;;5094009;28;20188;-73
2022/11/18 06:03:50;;;;;;;39.28;23.10;;;9.60;99.90;;;;;;5102275;28;20463;-74
2022/11/18 06:06:20;;;;;;;39.83;22.33;;;9.60;99.90;;;;;;5094740;28;20295;-74
2022/11/18 06:09:00;;;;;;;51.45;23.35;;;9.60;99.90;;;;;;5096042;28;20664;-74
2022/11/18 06:11:27;;;;;;;54.67;23.33;;;9.60;99.90;;;;;;5096160;28;20161;-74
2022/11/18 06:14:16;;;;;;;47.40;23.67;;;9.60;99.90;;;;;;5096309;28;20189;-74
2022/11/18 06:16:48;;;;;;;48.65;24.23;;;9.60;99.90;;;;;;5095897;28;20217;-74
2022/11/18 06:19:15;;;;;;;41.80;22.25;;;9.60;99.90;;;;;;5095819;28;20204;-74
2022/11/18 06:21:41;;;;;;;42.55;23.42;;;9.50;99.90;;;;;;5094613;28;20645;-74
2022/11/18 06:24:08;;;;;;;42.33;23.65;;;9.50;99.90;;;;;;5093261;28;20646;-74
2022/11/18 06:26:35;;;;;;;50.35;22.83;;;9.50;99.90;;;;;;5095700;28;20255;-74
2022/11/18 06:29:02;;;;;;;39.40;25.80;;;9.50;99.90;;;;;;5094273;28;20638;-74
2022/11/18 06:31:27;;;;;;;42.90;22.75;;;9.50;99.90;;;;;;5095339;28;20169;-74
2022/11/18 06:33:53;;;;;;;49.60;25.33;;;9.50;99.90;;;;;;5089362;28;20540;-74
2022/11/18 06:36:18;;;;;;;48.70;23.17;;;9.50;99.90;;;;;;5114415;28;20230;-74
2022/11/18 06:38:44;;;;;;;51.00;24.83;;;9.50;99.90;;;;;;5095682;28;20233;-74
2022/11/18 06:41:10;;;;;;;59.40;24.10;;;9.50;99.90;;;;;;5075968;28;20233;-74
2022/11/18 06:43:40;;;;;;;36.93;24.40;;;9.50;99.90;;;;;;5095361;28;20180;-74
2022/11/18 06:48:52;;;;;;;39.28;22.20;;;9.50;99.90;;;;;;5095874;28;20275;-74
2022/11/18 06:51:18;;;;;;;48.40;24.47;;;9.50;99.90;;;;;;5076517;28;20295;-74
2022/11/18 06:53:43;;;;;;;38.20;22.40;;;9.50;99.90;;;;;;5108954;28;20192;-74
2022/11/18 06:56:12;;;;;;;34.57;21.70;;;9.40;99.90;;;;;;5102413;28;20411;-74
2022/11/18 06:58:37;;;;;;;32.88;20.50;;;9.40;99.90;;;;;;5088431;28;20774;-74
2022/11/18 07:01:10;;;;;;;39.50;21.13;;;9.40;99.90;;;;;;5101911;28;20271;-74
2022/11/18 07:03:35;;;;;;;42.15;22.98;;;9.40;99.90;;;;;;5097070;28;20181;-74
2022/11/18 07:06:01;;;;;;;48.13;24.60;;;9.40;99.90;;;;;;5088575;28;20196;-74
2022/11/18 07:08:27;;;;;;;43.97;23.27;;;9.40;99.90;;;;;;5089161;28;20384;-74
2022/11/18 07:10:53;;;;;;;51.60;24.80;;;9.40;99.90;;;;;;5087809;28;20200;-74
2022/11/18 07:13:18;;;;;;;43.87;25.70;;;9.40;99.90;;;;;;5087901;28;20185;-74
2022/11/18 07:15:44;;;;;;;46.40;24.30;;;9.40;99.90;;;;;;5088471;28;20429;-74
2022/11/18 07:18:09;;;;;;;45.17;24.10;;;9.40;99.90;;;;;;5091893;28;20587;-74
2022/11/18 07:20:35;;;;;;;61.90;27.97;;;9.30;99.90;;;;;;5109851;28;20286;-74
2022/11/18 07:23:01;;;;;;;59.10;26.27;;;9.30;99.90;;;;;;5092497;28;20211;-74
2022/11/18 07:25:26;;;;;;;47.00;26.47;;;9.30;99.90;;;;;;5110544;28;20227;-74
2022/11/18 07:27:52;;;;;;;53.80;27.83;;;9.30;99.90;;;;;;5110467;28;20230;-74
2022/11/18 07:30:17;;;;;;;48.67;26.27;;;9.30;99.90;;;;;;5088844;28;20269;-74
2022/11/18 07:32:44;;;;;;;64.72;31.50;;;9.30;99.90;;;;;;5074718;28;20231;-74
2022/11/18 07:35:10;;;;;;;73.00;31.90;;;9.40;99.90;;;;;;5092852;28;20693;-73
2022/11/18 07:37:35;;;;;;;56.07;27.63;;;9.40;99.90;;;;;;5091879;28;20645;-74
2022/11/18 07:40:01;;;;;;;51.67;25.93;;;9.40;99.90;;;;;;5110820;28;20579;-74
2022/11/18 07:42:26;;;;;;;58.43;26.93;;;9.40;99.90;;;;;;5094919;28;20548;-73
2022/11/18 07:44:52;;;;;;;45.40;25.63;;;9.50;99.90;;;;;;5095185;28;20192;-73
2022/11/18 07:47:18;;;;;;;48.70;25.10;;;9.50;99.90;;;;;;5113157;28;20188;-74
2022/11/18 07:49:44;;;;;;;56.10;26.23;;;9.50;99.90;;;;;;5114710;28;20266;-74
2022/11/18 07:52:09;;;;;;;58.00;30.07;;;9.50;99.90;;;;;;5113677;28;20639;-74
2022/11/18 07:54:35;;;;;;;64.90;29.50;;;9.50;99.90;;;;;;5113935;28;20228;-74
2022/11/18 07:57:00;;;;;;;47.83;28.73;;;9.50;99.90;;;;;;5095692;28;20168;-74
2022/11/18 07:59:26;;;;;;;49.50;27.77;;;9.50;99.90;;;;;;5113506;28;20340;-74
2022/11/18 08:01:52;;;;;;;64.97;29.50;;;9.60;99.90;;;;;;5112970;28;20191;-73
2022/11/18 08:04:18;;;;;;;50.83;28.60;;;9.60;99.90;;;;;;5094230;28;20199;-75
2022/11/18 08:06:44;;;;;;;50.17;26.80;;;9.50;99.90;;;;;;5103944;28;20176;-74
2022/11/18 08:09:10;;;;;;;57.25;26.52;;;9.50;99.90;;;;;;5091554;28;20420;-73
2022/11/18 08:11:36;;;;;;;56.90;26.85;;;9.50;99.90;;;;;;5113975;28;20633;-74
2022/11/18 08:14:01;;;;;;;58.60;29.30;;;9.50;99.90;;;;;;5091092;28;20195;-74
2022/11/18 08:16:27;;;;;;;55.97;28.00;;;9.60;99.90;;;;;;5101319;28;20211;-74
2022/11/18 08:18:53;;;;;;;60.70;28.33;;;9.60;99.90;;;;;;5090369;28;20201;-74
2022/11/18 08:21:21;;;;;;;57.25;28.52;;;9.60;99.90;;;;;;5103829;28;20198;-74
2022/11/18 08:23:57;;;;;;;52.15;26.38;;;9.60;99.90;;;;;;5101904;28;20194;-73
2022/11/18 08:26:23;;;;;;;55.25;24.45;;;9.60;99.90;;;;;;5091571;28;20235;-74
2022/11/18 08:28:50;;;;;;;57.55;26.17;;;9.60;99.90;;;;;;5089554;28;20580;-74
2022/11/18 08:31:18;;;;;;;60.20;26.90;;;9.60;99.90;;;;;;5101312;28;20183;-73
2022/11/18 08:33:45;;;;;;;64.82;27.20;;;9.70;99.90;;;;;;5090616;28;20190;-74
2022/11/18 08:36:16;;;;;;;62.28;29.55;;;9.70;99.90;;;;;;5101168;28;20199;-74
2022/11/18 08:38:42;;;;;;;59.78;29.00;;;9.70;99.90;;;;;;5092809;28;20555;-74
2022/11/18 08:41:17;;;;;;;67.00;27.42;;;9.70;99.90;;;;;;5100955;28;20204;-74
2022/11/18 08:43:42;;;;;;;97.90;42.05;;;9.80;99.90;;;;;;5106083;28;20238;-74
2022/11/18 08:46:08;;;;;;;75.13;33.30;;;9.80;99.90;;;;;;5092854;28;20199;-74
2022/11/18 08:48:34;;;;;;;59.10;27.80;;;9.80;99.90;;;;;;5105541;28;20176;-74
2022/11/18 08:51:00;;;;;;;61.17;27.70;;;9.80;99.90;;;;;;5101499;28;20241;-74
2022/11/18 08:53:26;;;;;;;74.93;34.55;;;9.70;99.90;;;;;;5103286;28;20188;-74
2022/11/18 08:55:59;;;;;;;72.87;34.60;;;9.70;99.90;;;;;;5101976;28;20569;-74
2022/11/18 08:58:25;;;;;;;73.07;31.83;;;9.70;99.90;;;;;;5106845;28;20188;-74
2022/11/18 09:00:51;;;;;;;59.63;28.73;;;9.70;99.90;;;;;;5089218;28;20700;-74
2022/11/18 09:03:17;;;;;;;58.27;30.57;;;9.70;99.90;;;;;;5090646;28;20203;-74
2022/11/18 09:05:43;;;;;;;55.60;28.23;;;9.70;99.90;;;;;;5103440;28;20191;-74
2022/11/18 09:08:08;;;;;;;55.80;27.47;;;9.70;99.90;;;;;;5094049;28;20180;-74
2022/11/18 09:10:36;;;;;;;56.47;26.37;;;9.80;99.90;;;;;;5094731;28;20458;-74
2022/11/18 09:13:02;;;;;;;65.85;30.00;;;9.80;99.90;;;;;;5092708;28;20669;-74
2022/11/18 09:15:28;;;;;;;65.27;30.57;;;9.80;99.90;;;;;;5107176;28;20234;-74
2022/11/18 09:17:55;;;;;;;64.47;32.28;;;9.80;99.90;;;;;;5092698;28;20441;-74
2022/11/18 09:20:21;;;;;;;66.85;33.42;;;9.80;99.90;;;;;;5106905;28;20223;-74
2022/11/18 09:22:46;;;;;;;77.63;32.37;;;9.90;99.90;;;;;;5113616;27;20660;-74
2022/11/18 09:25:13;;;;;;;59.93;31.10;;;9.90;99.90;;;;;;5095251;28;20219;-74
2022/11/18 09:27:38;;;;;;;63.08;30.50;;;9.90;99.90;;;;;;5095669;28;20180;-74
2022/11/18 09:30:05;;;;;;;69.80;32.63;;;9.90;99.90;;;;;;5096565;28;20542;-74
2022/11/18 09:32:34;;;;;;;72.18;32.67;;;9.90;99.90;;;;;;5106288;28;20180;-73
2022/11/18 09:35:00;;;;;;;68.53;31.42;;;9.90;99.90;;;;;;5096487;28;20211;-74
2022/11/18 09:37:25;;;;;;;78.30;35.47;;;10.00;99.90;;;;;;5106054;28;20211;-73
2022/11/18 09:39:51;;;;;;;85.70;36.87;;;10.00;99.90;;;;;;5105128;28;20207;-73
2022/11/18 09:42:38;;;;;;;82.60;35.17;;;10.00;99.90;;;;;;5095628;28;20706;-73
2022/11/18 09:45:15;;;;;;;93.30;38.10;;;10.00;99.90;;;;;;5109300;28;20188;-73
2022/11/18 09:47:41;;;;;;;92.43;39.50;;;10.00;99.90;;;;;;5110184;28;20515;-73
2022/11/18 09:50:13;;;;;;;87.10;39.23;;;10.00;99.90;;;;;;5107208;28;20210;-73
2022/11/18 09:52:42;;;;;;;87.93;39.47;;;10.00;99.90;;;;;;5109445;28;20184;-73
2022/11/18 09:55:13;;;;;;;101.35;41.95;;;10.00;99.90;;;;;;5103755;28;20195;-73
2022/11/18 09:57:45;;;;;;;96.22;40.60;;;10.10;99.90;;;;;;5089235;28;20570;-73
2022/11/18 10:00:20;;;;;;;97.03;39.65;;;10.10;99.90;;;;;;5108516;28;20211;-73
2022/11/18 10:03:08;;;;;;;100.72;44.75;;;10.10;99.90;;;;;;5107479;28;20205;-73
2022/11/18 10:06:02;;;;;;;100.97;44.75;;;10.10;99.90;;;;;;5092268;28;20203;-73
2022/11/18 10:08:38;;;;;;;99.07;44.28;;;10.20;99.90;;;;;;5108190;28;20185;-73
2022/11/18 10:11:04;;;;;;;96.90;42.25;;;10.20;99.90;;;;;;5108304;28;20618;-74
2022/11/18 10:13:48;;;;;;;96.40;46.80;;;10.20;99.90;;;;;;5093203;28;20187;-73
2022/11/18 10:16:35;;;;;;;109.75;46.83;;;10.20;99.90;;;;;;5106407;28;20238;-73
2022/11/18 10:19:16;;;;;;;100.78;46.90;;;10.20;99.90;;;;;;5092786;28;20211;-73
2022/11/18 10:22:05;;;;;;;103.97;47.78;;;10.20;99.90;;;;;;5095315;28;20602;-73
2022/11/18 10:24:37;;;;;;;113.30;51.10;;;10.20;99.90;;;;;;5102368;28;20253;-74
2022/11/18 10:27:12;;;;;;;108.13;51.92;;;10.20;99.90;;;;;;5113726;28;20232;-75
2022/11/18 10:29:37;;;;;;;114.85;49.08;;;10.20;99.90;;;;;;5111432;28;20375;-74
2022/11/18 10:32:06;;;;;;;95.67;47.07;;;10.20;99.90;;;;;;5093502;28;20211;-73
2022/11/18 10:34:34;;;;;;;117.38;52.20;;;10.20;99.90;;;;;;5103159;28;20676;-73
2022/11/18 10:37:04;;;;;;;107.32;49.38;;;10.30;99.90;;;;;;5111862;27;20633;-73
2022/11/18 10:39:29;;;;;;;112.20;48.85;;;10.30;99.90;;;;;;5111617;27;20257;-73
2022/11/18 10:42:03;;;;;;;104.83;50.60;;;10.30;99.90;;;;;;5090822;28;20176;-73
2022/11/18 10:44:32;;;;;;;108.22;53.30;;;10.40;99.90;;;;;;5104296;28;20485;-73
2022/11/18 10:47:19;;;;;;;117.05;53.50;;;10.40;99.90;;;;;;5105646;27;20632;-73
2022/11/18 10:49:45;;;;;;;103.80;50.17;;;10.50;99.90;;;;;;5100314;28;20214;-73
2022/11/18 10:52:13;;;;;;;102.73;50.53;;;10.50;99.90;;;;;;5111042;28;20188;-73
2022/11/18 10:54:40;;;;;;;98.15;47.80;;;10.40;99.90;;;;;;5085462;28;20501;-73
2022/11/18 10:57:17;;;;;;;102.57;49.15;;;10.50;99.90;;;;;;5083574;28;20222;-73
2022/11/18 10:59:51;;;;;;;95.80;49.00;;;10.50;99.90;;;;;;5094327;28;20207;-73
2022/11/18 11:02:29;;;;;;;99.05;48.65;;;10.50;99.90;;;;;;5094648;28;20172;-73
2022/11/18 11:04:57;;;;;;;101.40;53.73;;;10.50;99.90;;;;;;5094307;28;20229;-73
2022/11/18 11:07:23;;;;;;;96.88;51.35;;;10.50;99.90;;;;;;5101331;28;20440;-73
2022/11/18 11:10:18;;;;;;;106.70;53.08;;;10.60;99.90;;;;;;5091083;28;20200;-73
2022/11/18 11:13:00;;;;;;;108.20;53.03;;;10.60;99.90;;;;;;5093168;28;20223;-74
2022/11/18 11:15:45;;;;;;;102.20;49.17;;;10.60;99.90;;;;;;5096082;28;20664;-73
2022/11/18 11:21:12;;;;;;;96.13;48.85;;;10.70;99.90;;;;;;5112392;28;20264;-74
2022/11/18 11:23:38;;;;;;;101.38;49.05;;;10.70;99.90;;;;;;5115248;28;20171;-74
2022/11/18 11:26:31;;;;;;;99.03;48.57;;;10.80;99.90;;;;;;5093029;28;20241;-74
2022/11/18 11:29:03;;;;;;;102.88;50.90;;;10.80;99.90;;;;;;5108167;28;20829;-74
2022/11/18 11:31:48;;;;;;;99.63;51.70;;;10.90;99.90;;;;;;5106145;28;20232;-74
2022/11/18 11:34:32;;;;;;;125.55;66.40;;;10.90;99.90;;;;;;5095349;28;20180;-75
2022/11/18 11:37:25;;;;;;;96.00;51.55;;;10.90;99.90;;;;;;5092517;28;20214;-74
2022/11/18 11:40:18;;;;;;;106.75;56.28;;;10.90;99.90;;;;;;5102340;28;20227;-74
2022/11/18 11:43:02;;;;;;;93.90;48.05;;;11.00;99.90;;;;;;5108950;28;20548;-74
2022/11/18 11:45:47;;;;;;;94.30;49.87;;;11.00;99.90;;;;;;5106218;28;20210;-74
2022/11/18 11:48:54;;;;;;;93.82;46.92;;;11.00;99.90;;;;;;5086705;28;20443;-74
2022/11/18 11:51:38;;;;;;;79.47;46.97;;;11.00;99.90;;;;;;5061356;28;20652;-74
2022/11/18 11:54:21;;;;;;;93.03;46.72;;;11.00;99.90;;;;;;5104417;28;20537;-74
2022/11/18 11:57:20;;;;;;;90.13;48.30;;;11.00;99.90;;;;;;5110714;28;20168;-74
2022/11/18 12:00:03;;;;;;;95.95;47.50;;;11.00;99.90;;;;;;5071521;28;20223;-74
2022/11/18 12:02:52;;;;;;;89.00;49.30;;;11.00;99.90;;;;;;5109624;28;20187;-74
2022/11/18 12:05:34;;;;;;;96.47;47.35;;;10.90;99.90;;;;;;5110039;27;20675;-74
2022/11/18 12:08:13;;;;;;;91.30;45.80;;;10.90;99.90;;;;;;5111530;28;20183;-74
2022/11/18 12:11:04;;;;;;;86.37;48.03;;;11.00;99.90;;;;;;5091256;28;20195;-73
2022/11/18 12:13:41;;;;;;;96.77;46.40;;;11.00;99.90;;;;;;5092896;28;21026;-74
2022/11/18 12:16:25;;;;;;;76.78;44.83;;;11.00;99.90;;;;;;5111086;28;20436;-74
2022/11/18 12:19:10;;;;;;;79.95;45.28;;;10.90;99.90;;;;;;5096444;28;20637;-73
2022/11/18 12:21:42;;;;;;;86.47;44.65;;;10.90;99.90;;;;;;5097460;28;20186;-74
2022/11/18 12:24:24;;;;;;;90.43;50.30;;;10.90;99.90;;;;;;5088908;28;20195;-74
2022/11/18 12:26:51;;;;;;;86.60;46.95;;;10.90;99.90;;;;;;5086826;28;20477;-73
2022/11/18 12:29:17;;;;;;;90.93;48.03;;;10.90;99.90;;;;;;5099878;28;20183;-74
2022/11/18 12:31:44;;;;;;;99.00;48.60;;;10.90;99.90;;;;;;5094473;28;20645;-74
2022/11/18 12:34:39;;;;;;;87.33;47.27;;;10.90;99.90;;;;;;5113067;28;20180;-74
2022/11/18 12:37:22;;;;;;;86.30;48.50;;;10.90;99.90;;;;;;5111046;28;20482;-73
2022/11/18 12:39:57;;;;;;;104.43;53.15;;;10.90;99.90;;;;;;5113633;28;20214;-74
2022/11/18 12:45:36;;;;;;;98.25;49.22;;;10.90;99.90;;;;;;5105057;27;20583;-74
2022/11/18 12:48:02;;;;;;;100.93;49.17;;;10.90;99.90;;;;;;5096537;28;20199;-74
2022/11/18 12:50:55;;;;;;;100.87;51.17;;;10.90;99.90;;;;;;5112102;28;20214;-74
2022/11/18 12:53:40;;;;;;;78.85;43.90;;;10.90;99.90;;;;;;5108132;28;20454;-74
2022/11/18 12:56:16;;;;;;;122.17;72.53;;;10.90;99.90;;;;;;5113061;28;20191;-73
2022/11/18 12:58:46;;;;;;;98.60;54.95;;;10.90;99.90;;;;;;5110925;27;20432;-74
2022/11/18 13:01:14;;;;;;;77.47;44.33;;;10.90;99.90;;;;;;5094359;28;20238;-74
2022/11/18 13:03:40;;;;;;;80.82;47.03;;;10.90;99.90;;;;;;5092853;27;20180;-74
2022/11/18 13:06:19;;;;;;;91.10;44.60;;;10.90;99.90;;;;;;5114833;28;20253;-74
2022/11/18 13:08:52;;;;;;;99.32;46.63;;;10.90;99.90;;;;;;5095953;27;20188;-75
2022/11/18 13:19:34;;;;;;;88.00;47.03;;;11.00;99.90;;;;;;5110958;27;20630;-74